Time;durP1;ratioP1;P1;durP2;ratioP2;P2;SDS_P1;SDS_P2;PMS_P1;PMS_P2;Temp;Humidity;BMP_temperature;BMP_pressure;BME280_temperature;BME280_humidity;BME280_pressure;Samples;Min_cycle;Max_cycle;Signal;HPM_P1;HPM_P2
2023/01/11 00:01:56;;;;;;;3.20;1.23;;;4.10;54.40;;;;;;5017718;28;46437;-63
2023/01/11 00:04:27;;;;;;;1.30;0.90;;;4.20;54.70;;;;;;5018316;28;47097;-64
2023/01/11 00:06:52;;;;;;;1.97;1.20;;;4.10;55.80;;;;;;5015399;28;46508;-62
2023/01/11 00:09:18;;;;;;;1.50;0.80;;;4.20;54.90;;;;;;5017900;28;46906;-63
2023/01/11 00:11:43;;;;;;;2.37;1.17;;;4.10;54.70;;;;;;5016558;28;46449;-64
2023/01/11 00:14:09;;;;;;;3.90;0.80;;;4.10;54.90;;;;;;5019059;28;46395;-64
2023/01/11 00:16:34;;;;;;;3.10;1.27;;;4.10;55.00;;;;;;5018335;28;47219;-64
2023/01/11 00:19:00;;;;;;;2.03;0.93;;;4.20;56.20;;;;;;5017799;28;46461;-63
2023/01/11 00:21:26;;;;;;;2.97;1.17;;;4.30;55.00;;;;;;5018122;28;46433;-65
2023/01/11 00:23:52;;;;;;;1.83;0.70;;;4.30;55.00;;;;;;5017440;28;46362;-64
2023/01/11 00:26:17;;;;;;;2.67;1.03;;;4.40;54.90;;;;;;5017080;28;47051;-65
2023/01/11 00:28:43;;;;;;;2.93;1.17;;;4.50;54.90;;;;;;5019714;28;46717;-64
2023/01/11 00:31:09;;;;;;;1.60;0.90;;;4.60;54.90;;;;;;5017076;28;46467;-64
2023/01/11 00:33:34;;;;;;;1.60;0.90;;;4.60;54.90;;;;;;5018418;28;46572;-64
2023/01/11 00:36:00;;;;;;;1.77;1.00;;;4.70;54.90;;;;;;5015313;28;46319;-64
2023/01/11 00:49:25;;;;;;;1.40;0.90;;;4.80;55.20;;;;;;5016613;28;46347;-65
2023/01/11 00:51:51;;;;;;;1.43;1.00;;;4.90;55.20;;;;;;5018302;28;46443;-63
2023/01/11 00:54:16;;;;;;;1.60;0.83;;;4.90;55.10;;;;;;5018265;28;46599;-65
2023/01/11 00:56:42;;;;;;;3.27;1.00;;;5.00;55.10;;;;;;5016457;28;46177;-64
2023/01/11 00:59:08;;;;;;;1.47;0.90;;;5.00;55.00;;;;;;5018399;28;45783;-63
2023/01/11 01:01:34;;;;;;;1.80;0.80;;;5.10;55.10;;;;;;5017638;28;46407;-63
2023/01/11 01:04:01;;;;;;;2.57;0.97;;;5.10;55.00;;;;;;5018326;28;46441;-64
2023/01/11 01:06:27;;;;;;;1.20;0.80;;;5.20;55.00;;;;;;5018786;28;47192;-65
2023/01/11 01:08:53;;;;;;;1.20;0.70;;;5.20;55.00;;;;;;5017357;28;46331;-63
2023/01/11 01:11:18;;;;;;;1.73;0.80;;;5.20;55.10;;;;;;5017024;28;46330;-65
2023/01/11 01:16:28;;;;;;;5.57;1.27;;;5.40;55.10;;;;;;5016763;28;46391;-64
2023/01/11 01:18:56;;;;;;;1.10;0.70;;;5.40;55.00;;;;;;5017575;28;46353;-64
2023/01/11 01:21:22;;;;;;;1.20;0.80;;;5.40;55.10;;;;;;5017938;28;46536;-64
2023/01/11 01:23:49;;;;;;;3.40;1.23;;;5.40;55.00;;;;;;5017073;28;46465;-63
2023/01/11 01:26:15;;;;;;;1.70;0.90;;;5.50;55.00;;;;;;5017140;28;46390;-63
2023/01/11 01:28:41;;;;;;;1.50;0.97;;;5.50;55.00;;;;;;5017937;28;46643;-63
2023/01/11 01:31:06;;;;;;;3.20;0.97;;;5.60;55.00;;;;;;5017718;28;46440;-65
2023/01/11 01:33:32;;;;;;;1.73;0.80;;;5.60;55.00;;;;;;5018295;28;46414;-62
2023/01/11 01:36:00;;;;;;;3.80;0.80;;;5.70;55.00;;;;;;5016806;28;46376;-64
2023/01/11 01:38:26;;;;;;;1.30;0.83;;;5.70;55.10;;;;;;5016868;28;46404;-62
2023/01/11 01:40:52;;;;;;;1.17;0.80;;;5.70;55.10;;;;;;5016349;28;46447;-62
2023/01/11 01:43:18;;;;;;;1.10;0.70;;;5.70;55.10;;;;;;5017699;28;46454;-62
2023/01/11 01:45:44;;;;;;;1.30;0.70;;;5.70;55.00;;;;;;5016633;28;46502;-64
2023/01/11 01:48:13;;;;;;;4.20;1.10;;;5.80;55.20;;;;;;5016975;28;45896;-64
2023/01/11 01:50:47;;;;;;;2.23;0.90;;;5.80;55.00;;;;;;5019586;28;46362;-64
2023/01/11 01:53:20;;;;;;;1.17;0.87;;;5.90;55.00;;;;;;5019358;28;46488;-64
2023/01/11 01:55:52;;;;;;;2.13;0.80;;;5.90;55.00;;;;;;5019804;28;46570;-63
2023/01/11 01:58:21;;;;;;;0.90;0.63;;;6.00;55.00;;;;;;5017989;28;45936;-63
2023/01/11 02:00:47;;;;;;;1.50;0.90;;;6.00;54.80;;;;;;5020697;28;45877;-63
2023/01/11 02:03:19;;;;;;;2.50;0.80;;;6.00;54.80;;;;;;5024720;28;46370;-64
2023/01/11 02:05:46;;;;;;;1.40;0.90;;;6.10;54.80;;;;;;5023232;28;46036;-63
2023/01/11 02:08:34;;;;;;;1.50;0.90;;;6.10;54.80;;;;;;5021884;28;45966;-64
2023/01/11 02:11:01;;;;;;;1.27;0.80;;;6.20;54.80;;;;;;5023702;28;46391;-62
2023/01/11 02:13:27;;;;;;;3.33;1.20;;;6.10;54.80;;;;;;5022690;28;45865;-64
2023/01/11 02:16:07;;;;;;;2.23;0.70;;;6.10;55.00;;;;;;5018920;28;45945;-64
2023/01/11 02:18:34;;;;;;;1.50;0.80;;;6.10;55.10;;;;;;5020078;28;46379;-63
2023/01/11 02:21:21;;;;;;;1.07;0.70;;;6.20;55.10;;;;;;5019605;28;46323;-64
2023/01/11 02:23:59;;;;;;;1.50;0.80;;;6.10;55.10;;;;;;5019844;28;46423;-64
2023/01/11 02:27:01;;;;;;;1.97;0.80;;;6.10;55.20;;;;;;5019732;28;47116;-63
2023/01/11 02:29:42;;;;;;;1.47;0.80;;;6.20;55.30;;;;;;5003689;28;46332;-63
2023/01/11 02:32:38;;;;;;;1.60;0.70;;;6.20;55.20;;;;;;5018004;28;46482;-63
2023/01/11 02:35:21;;;;;;;1.57;0.77;;;6.20;55.30;;;;;;5018486;28;46366;-64
2023/01/11 02:37:56;;;;;;;1.10;0.67;;;6.30;55.30;;;;;;5019374;28;46448;-64
2023/01/11 02:41:03;;;;;;;1.00;0.60;;;6.30;55.40;;;;;;5018500;28;46443;-64
2023/01/11 02:46:44;;;;;;;2.70;0.70;;;6.30;55.20;;;;;;5019814;28;46426;-64
2023/01/11 02:49:26;;;;;;;1.00;0.60;;;6.40;55.20;;;;;;5019614;28;46406;-64
2023/01/11 02:52:01;;;;;;;1.00;0.60;;;6.40;55.40;;;;;;5019297;28;46469;-64
2023/01/11 02:54:29;;;;;;;1.80;0.67;;;6.40;55.50;;;;;;5018706;28;46398;-64
2023/01/11 02:56:57;;;;;;;1.47;0.60;;;6.40;55.50;;;;;;5019487;28;46374;-62
2023/01/11 02:59:31;;;;;;;1.03;0.70;;;6.40;55.60;;;;;;5017003;28;47206;-64
2023/01/11 03:01:58;;;;;;;1.00;0.63;;;6.30;55.70;;;;;;5018916;28;46384;-63
2023/01/11 03:04:35;;;;;;;0.93;0.60;;;6.30;55.80;;;;;;5017916;28;46733;-64
2023/01/11 03:07:28;;;;;;;2.60;0.70;;;6.30;57.00;;;;;;5017641;28;45902;-63
2023/01/11 03:09:59;;;;;;;1.33;0.60;;;6.40;56.10;;;;;;5015747;28;46491;-63
2023/01/11 03:12:56;;;;;;;1.67;0.70;;;6.40;56.20;;;;;;5017703;28;46379;-63
2023/01/11 03:15:52;;;;;;;1.20;0.60;;;6.40;56.40;;;;;;5016508;28;45849;-63
2023/01/11 03:18:39;;;;;;;0.90;0.60;;;6.40;56.40;;;;;;5017114;28;46569;-63
2023/01/11 03:21:26;;;;;;;1.57;0.70;;;6.50;56.50;;;;;;5015236;28;47499;-62
2023/01/11 03:24:11;;;;;;;1.23;0.70;;;6.50;56.40;;;;;;5017428;28;46458;-63
2023/01/11 03:27:01;;;;;;;1.00;0.60;;;6.50;56.50;;;;;;5017122;28;46904;-63
2023/01/11 03:29:35;;;;;;;0.90;0.50;;;6.50;56.50;;;;;;5015134;28;46582;-62
2023/01/11 03:32:19;;;;;;;1.30;0.60;;;6.60;56.60;;;;;;5017712;28;46464;-63
2023/01/11 03:34:57;;;;;;;1.07;0.70;;;6.60;56.60;;;;;;5017444;28;46456;-62
2023/01/11 03:37:50;;;;;;;1.00;0.60;;;6.60;56.60;;;;;;5018250;28;45894;-64
2023/01/11 03:40:24;;;;;;;0.97;0.57;;;6.50;56.60;;;;;;5016871;28;46413;-62
2023/01/11 03:43:10;;;;;;;1.80;0.50;;;6.40;57.20;;;;;;5017234;28;46490;-62
2023/01/11 03:46:01;;;;;;;1.30;0.63;;;6.20;57.50;;;;;;5017746;28;46372;-62
2023/01/11 03:48:31;;;;;;;1.00;0.60;;;6.10;58.00;;;;;;5019462;28;46300;-64
2023/01/11 03:51:00;;;;;;;3.13;0.60;;;6.00;58.50;;;;;;5016639;28;46372;-64
2023/01/11 03:53:30;;;;;;;1.00;0.60;;;5.90;58.70;;;;;;5017310;28;46474;-64
2023/01/11 03:55:58;;;;;;;0.90;0.60;;;6.00;58.50;;;;;;5016756;28;46379;-64
2023/01/11 03:58:26;;;;;;;1.00;0.60;;;6.20;58.20;;;;;;5017726;28;46613;-64
2023/01/11 04:00:56;;;;;;;1.13;0.60;;;6.30;57.80;;;;;;5018312;28;46677;-65
2023/01/11 04:03:22;;;;;;;2.53;0.70;;;6.40;57.30;;;;;;5018485;28;46395;-64
2023/01/11 04:05:52;;;;;;;1.33;0.70;;;6.60;57.20;;;;;;5016737;28;46489;-63
2023/01/11 04:08:17;;;;;;;2.30;1.70;;;6.70;56.70;;;;;;5017006;28;45981;-64
2023/01/11 04:10:43;;;;;;;1.00;0.70;;;6.60;56.60;;;;;;5017000;28;46470;-63
2023/01/11 04:13:09;;;;;;;1.30;0.70;;;6.70;56.60;;;;;;5017889;28;47964;-63
2023/01/11 04:15:34;;;;;;;1.00;0.70;;;6.70;56.70;;;;;;5017901;28;45963;-64
2023/01/11 04:18:04;;;;;;;1.23;0.70;;;6.70;56.80;;;;;;5018358;28;45850;-63
2023/01/11 04:20:34;;;;;;;1.30;0.60;;;6.70;56.90;;;;;;5017108;28;46764;-64
2023/01/11 04:23:00;;;;;;;1.13;0.60;;;6.70;56.80;;;;;;5018238;28;46387;-63
2023/01/11 04:25:26;;;;;;;1.53;0.60;;;6.70;56.80;;;;;;5017698;28;46374;-63
2023/01/11 04:27:51;;;;;;;1.00;0.60;;;6.80;56.80;;;;;;5018089;28;46439;-65
2023/01/11 04:30:17;;;;;;;0.90;0.60;;;6.80;56.70;;;;;;5018228;28;46680;-62
2023/01/11 04:32:43;;;;;;;1.33;0.70;;;6.80;56.90;;;;;;5017964;28;46505;-63
2023/01/11 04:35:08;;;;;;;1.37;0.60;;;6.80;57.10;;;;;;5017350;28;46597;-65
2023/01/11 04:37:34;;;;;;;1.37;0.70;;;6.80;57.10;;;;;;5018541;28;46405;-64
2023/01/11 04:39:59;;;;;;;1.00;0.60;;;6.80;57.20;;;;;;5016025;28;45998;-64
2023/01/11 04:42:25;;;;;;;1.50;0.70;;;6.80;57.20;;;;;;5017192;28;48052;-63
2023/01/11 04:44:51;;;;;;;1.83;0.70;;;6.80;57.40;;;;;;5016254;28;46377;-63
2023/01/11 04:47:19;;;;;;;1.10;0.60;;;6.80;57.60;;;;;;5017663;28;46443;-62
2023/01/11 04:49:45;;;;;;;1.50;0.70;;;6.80;58.70;;;;;;5018206;28;45917;-64
2023/01/11 04:52:13;;;;;;;1.20;0.70;;;6.80;57.40;;;;;;5015911;28;46946;-65
2023/01/11 04:54:39;;;;;;;1.30;0.60;;;6.90;57.30;;;;;;5017668;28;46412;-63
2023/01/11 04:57:05;;;;;;;1.00;0.60;;;6.90;57.20;;;;;;5017170;28;45851;-64
2023/01/11 04:59:31;;;;;;;1.30;0.70;;;7.00;57.30;;;;;;5018676;28;45930;-65
2023/01/11 05:01:57;;;;;;;1.27;0.70;;;7.00;57.30;;;;;;5017492;28;46417;-64
2023/01/11 05:04:23;;;;;;;1.00;0.60;;;7.00;57.30;;;;;;5016708;28;45772;-64
2023/01/11 05:06:48;;;;;;;2.23;0.60;;;7.00;57.30;;;;;;5016690;28;46432;-64
2023/01/11 05:09:16;;;;;;;2.40;0.67;;;7.10;57.40;;;;;;5016886;28;46553;-64
2023/01/11 05:11:41;;;;;;;5.40;0.63;;;7.10;57.20;;;;;;5016528;28;46434;-64
2023/01/11 05:14:07;;;;;;;0.90;0.60;;;7.10;57.10;;;;;;5016877;28;46461;-64
2023/01/11 05:16:33;;;;;;;1.27;0.60;;;7.20;57.10;;;;;;5017042;28;46437;-64
2023/01/11 05:19:02;;;;;;;1.30;0.70;;;7.20;57.20;;;;;;5016507;28;46585;-64
2023/01/11 05:21:31;;;;;;;1.37;0.73;;;7.20;57.10;;;;;;5016488;28;46497;-64
2023/01/11 05:24:02;;;;;;;1.13;0.60;;;7.20;57.10;;;;;;5020407;28;46367;-64
2023/01/11 05:26:33;;;;;;;1.30;0.70;;;7.30;57.10;;;;;;5021954;28;45860;-63
2023/01/11 05:29:01;;;;;;;1.30;0.60;;;7.30;57.20;;;;;;5022533;28;46368;-64
2023/01/11 05:31:27;;;;;;;2.93;0.60;;;7.30;57.10;;;;;;5019130;28;46546;-63
2023/01/11 05:33:55;;;;;;;0.90;0.50;;;7.30;57.10;;;;;;5020492;28;46473;-63
2023/01/11 05:36:23;;;;;;;1.30;0.67;;;7.30;56.90;;;;;;5019840;28;46478;-63
2023/01/11 05:38:50;;;;;;;2.50;0.70;;;7.30;58.00;;;;;;5020131;28;46664;-62
2023/01/11 05:41:18;;;;;;;1.50;0.70;;;7.40;58.00;;;;;;5020227;28;49125;-64
2023/01/11 05:46:30;;;;;;;1.10;0.70;;;7.50;56.60;;;;;;5020041;28;46457;-63
2023/01/11 05:48:57;;;;;;;1.70;0.70;;;7.50;56.50;;;;;;5018831;28;46378;-64
2023/01/11 05:51:24;;;;;;;1.67;0.80;;;7.50;56.30;;;;;;5018542;28;46591;-64
2023/01/11 05:53:49;;;;;;;1.10;0.70;;;7.60;56.20;;;;;;5019154;28;46449;-64
2023/01/11 05:56:15;;;;;;;1.10;0.80;;;7.60;56.10;;;;;;5019848;28;46344;-63
2023/01/11 05:58:40;;;;;;;1.40;0.80;;;7.60;56.00;;;;;;5019446;28;46644;-64
2023/01/11 06:01:06;;;;;;;1.50;1.00;;;7.70;56.10;;;;;;5020239;28;46423;-63
2023/01/11 06:03:32;;;;;;;1.10;0.70;;;7.70;56.10;;;;;;5019707;28;46171;-63
2023/01/11 06:05:58;;;;;;;1.77;0.90;;;7.70;55.90;;;;;;5019925;28;46375;-64
2023/01/11 06:08:24;;;;;;;2.50;1.00;;;7.70;56.00;;;;;;5020116;28;46623;-64
2023/01/11 06:10:51;;;;;;;2.10;0.70;;;7.80;56.00;;;;;;5020097;28;46493;-64
2023/01/11 06:13:26;;;;;;;1.10;0.70;;;7.80;55.80;;;;;;5018744;28;46323;-64
2023/01/11 06:16:03;;;;;;;1.20;0.70;;;7.80;55.80;;;;;;5019941;28;46461;-63
2023/01/11 06:18:30;;;;;;;1.67;0.70;;;7.80;55.60;;;;;;5019348;28;46441;-64
2023/01/11 06:20:56;;;;;;;1.10;0.60;;;7.80;55.60;;;;;;5018962;28;47018;-64
2023/01/11 06:23:23;;;;;;;1.10;0.60;;;7.90;55.60;;;;;;5019129;28;46449;-64
2023/01/11 06:25:49;;;;;;;5.53;0.60;;;7.90;55.40;;;;;;5018238;28;46493;-64
2023/01/11 06:28:15;;;;;;;1.00;0.70;;;7.90;55.50;;;;;;5019871;28;46407;-64
2023/01/11 06:30:40;;;;;;;1.23;0.70;;;7.90;55.30;;;;;;5019993;28;46365;-64
2023/01/11 06:33:07;;;;;;;1.30;0.60;;;7.90;55.40;;;;;;5019288;28;46335;-64
2023/01/11 06:35:37;;;;;;;1.33;0.70;;;7.90;55.20;;;;;;5018256;28;46382;-63
2023/01/11 06:38:02;;;;;;;4.03;0.70;;;8.00;55.20;;;;;;5018955;28;46959;-63
2023/01/11 06:40:28;;;;;;;1.40;0.70;;;8.00;55.00;;;;;;5019701;28;46414;-63
2023/01/11 06:42:54;;;;;;;2.70;0.60;;;8.00;54.80;;;;;;5020098;28;45801;-64
2023/01/11 06:45:20;;;;;;;1.60;0.70;;;8.00;54.90;;;;;;5019623;28;46538;-64
2023/01/11 06:47:45;;;;;;;1.20;0.60;;;8.00;54.90;;;;;;5019057;28;45957;-63
2023/01/11 06:50:11;;;;;;;1.30;0.63;;;8.00;54.90;;;;;;5019357;28;47232;-64
2023/01/11 06:52:37;;;;;;;1.40;0.70;;;8.00;54.80;;;;;;5020172;28;46609;-63
2023/01/11 06:55:03;;;;;;;1.40;0.70;;;8.00;54.60;;;;;;5018853;28;46469;-63
2023/01/11 06:57:29;;;;;;;2.13;0.60;;;8.10;54.40;;;;;;5016146;28;45916;-63
2023/01/11 06:59:54;;;;;;;1.30;0.70;;;8.10;54.20;;;;;;5016375;28;47213;-63
2023/01/11 07:02:20;;;;;;;6.57;3.20;;;8.10;54.10;;;;;;5017515;28;46469;-62
2023/01/11 07:04:46;;;;;;;3.03;1.97;;;8.20;54.30;;;;;;5016702;28;46518;-63
2023/01/11 07:07:11;;;;;;;1.30;1.10;;;8.30;54.10;;;;;;5023017;28;46442;-63
2023/01/11 07:09:37;;;;;;;2.97;1.73;;;8.30;54.00;;;;;;5021026;28;46453;-63
2023/01/11 07:12:03;;;;;;;1.37;0.93;;;8.30;54.10;;;;;;5018315;28;46422;-63
2023/01/11 07:14:28;;;;;;;1.40;0.80;;;8.20;54.30;;;;;;5016274;28;46413;-63
2023/01/11 07:16:54;;;;;;;1.70;1.17;;;8.20;54.40;;;;;;5017190;28;46607;-64
2023/01/11 07:19:20;;;;;;;2.07;1.50;;;8.20;54.40;;;;;;5018564;28;46403;-63
2023/01/11 07:21:45;;;;;;;2.33;1.07;;;8.20;54.40;;;;;;5017707;28;46277;-63
2023/01/11 07:24:11;;;;;;;2.20;1.00;;;8.30;54.30;;;;;;5018036;28;46462;-64
2023/01/11 07:26:40;;;;;;;2.30;1.33;;;8.40;54.20;;;;;;5017932;28;46367;-63
2023/01/11 07:29:07;;;;;;;1.40;1.03;;;8.40;53.90;;;;;;5018470;28;46415;-65
2023/01/11 07:31:32;;;;;;;1.30;0.80;;;8.50;53.60;;;;;;5019654;28;45918;-66
2023/01/11 07:34:01;;;;;;;2.33;1.00;;;8.50;53.50;;;;;;5019878;28;46486;-66
2023/01/11 07:36:28;;;;;;;1.73;0.90;;;8.60;53.40;;;;;;5018455;28;46545;-66
2023/01/11 07:38:54;;;;;;;1.63;0.73;;;8.50;53.30;;;;;;5016471;28;46493;-66
2023/01/11 07:44:05;;;;;;;1.37;0.80;;;8.50;53.40;;;;;;5018086;28;46744;-65
2023/01/11 07:46:30;;;;;;;1.93;0.83;;;8.60;53.30;;;;;;5016342;28;45895;-65
2023/01/11 07:48:56;;;;;;;1.47;0.87;;;8.80;53.20;;;;;;5016863;28;46809;-66
2023/01/11 07:51:23;;;;;;;1.60;0.80;;;8.80;52.80;;;;;;5018531;28;46375;-65
2023/01/11 07:53:49;;;;;;;2.87;1.30;;;8.90;52.50;;;;;;5017761;28;46434;-66
2023/01/11 07:56:15;;;;;;;3.20;1.77;;;9.00;52.40;;;;;;5018182;28;46689;-65
2023/01/11 07:58:40;;;;;;;6.07;3.10;;;9.00;52.10;;;;;;5022956;28;46403;-66
2023/01/11 08:01:06;;;;;;;2.50;1.50;;;9.10;51.80;;;;;;5018307;28;46370;-67
2023/01/11 08:03:32;;;;;;;7.60;3.07;;;9.00;51.80;;;;;;5019053;28;46400;-66
2023/01/11 08:05:57;;;;;;;3.50;2.80;;;9.00;52.30;;;;;;5018992;28;46399;-65
2023/01/11 08:08:23;;;;;;;4.50;2.87;;;9.00;52.30;;;;;;5017541;28;46826;-65
2023/01/11 08:16:26;;;;;;;4.23;1.77;;;9.10;51.80;;;;;;5017281;28;46291;-66
2023/01/11 08:18:54;;;;;;;2.70;1.20;;;9.20;51.90;;;;;;5017474;28;47372;-66
2023/01/11 08:21:20;;;;;;;7.70;5.10;;;9.30;52.00;;;;;;5016956;28;45896;-65
2023/01/11 08:23:46;;;;;;;8.47;4.30;;;9.40;52.10;;;;;;5018341;28;46433;-65
2023/01/11 08:26:15;;;;;;;12.43;7.33;;;9.50;52.20;;;;;;5017167;28;46422;-66
2023/01/11 08:28:42;;;;;;;4.07;2.17;;;9.50;52.20;;;;;;5016882;28;46449;-65
2023/01/11 08:31:09;;;;;;;2.40;1.33;;;9.50;52.20;;;;;;5018005;28;46365;-65
2023/01/11 08:33:34;;;;;;;2.00;1.20;;;9.60;52.40;;;;;;5016732;28;46358;-66
2023/01/11 08:36:04;;;;;;;1.40;0.70;;;9.70;52.40;;;;;;5017546;28;46394;-64
2023/01/11 08:38:30;;;;;;;1.60;0.80;;;9.70;52.40;;;;;;5017094;28;46374;-67
2023/01/11 08:40:56;;;;;;;1.10;0.60;;;9.70;52.40;;;;;;5017079;28;45808;-67
2023/01/11 08:43:22;;;;;;;1.30;0.70;;;9.70;52.30;;;;;;5016015;28;46319;-66
2023/01/11 08:45:49;;;;;;;2.27;0.70;;;9.80;52.50;;;;;;5016494;28;46458;-65
2023/01/11 08:48:15;;;;;;;1.30;0.70;;;9.90;52.50;;;;;;5016320;28;46497;-66
2023/01/11 08:50:41;;;;;;;1.10;0.60;;;10.00;51.60;;;;;;5016723;28;46550;-65
2023/01/11 08:53:06;;;;;;;1.30;0.77;;;10.00;51.60;;;;;;5017951;28;46413;-66
2023/01/11 08:55:32;;;;;;;1.20;0.67;;;10.00;51.60;;;;;;5019189;28;46642;-66
2023/01/11 08:57:57;;;;;;;9.47;6.53;;;9.90;52.50;;;;;;5018617;28;46474;-65
2023/01/11 09:00:23;;;;;;;1.60;0.80;;;9.90;52.50;;;;;;5015696;28;46451;-65
2023/01/11 09:02:49;;;;;;;1.60;0.77;;;9.90;52.50;;;;;;5016141;28;46510;-66
2023/01/11 09:05:14;;;;;;;1.30;0.70;;;9.90;52.50;;;;;;5016972;28;46328;-66
2023/01/11 09:07:40;;;;;;;3.27;1.00;;;9.90;52.50;;;;;;5018251;28;46416;-66
2023/01/11 09:10:06;;;;;;;1.47;0.80;;;10.00;51.60;;;;;;5017185;28;46431;-66
2023/01/11 09:12:31;;;;;;;1.30;0.70;;;10.00;51.20;;;;;;5018090;28;46357;-65
2023/01/11 09:14:57;;;;;;;2.00;1.10;;;10.10;50.80;;;;;;5017359;28;46380;-67
2023/01/11 09:17:23;;;;;;;1.20;0.70;;;10.10;50.40;;;;;;5016131;28;46622;-65
2023/01/11 09:19:49;;;;;;;2.37;1.43;;;10.20;50.00;;;;;;5017877;28;46427;-66
2023/01/11 09:22:15;;;;;;;1.90;0.80;;;10.30;49.80;;;;;;5017374;28;46457;-65
2023/01/11 09:24:40;;;;;;;1.57;0.60;;;10.30;49.50;;;;;;5015608;28;46597;-65
2023/01/11 09:27:06;;;;;;;1.47;0.70;;;10.40;49.40;;;;;;5016134;28;46980;-66
2023/01/11 09:29:32;;;;;;;2.67;1.57;;;10.50;49.20;;;;;;5015455;28;46446;-67
2023/01/11 09:31:57;;;;;;;1.50;0.80;;;10.60;48.90;;;;;;5017355;28;46406;-66
2023/01/11 09:34:26;;;;;;;1.30;0.70;;;10.70;48.40;;;;;;5016495;28;46420;-66
2023/01/11 09:36:52;;;;;;;1.50;0.70;;;10.90;48.00;;;;;;5015378;28;47205;-66
2023/01/11 09:39:21;;;;;;;1.53;0.77;;;11.00;47.60;;;;;;5017410;28;46305;-67
2023/01/11 09:42:09;;;;;;;1.10;0.60;;;11.20;47.40;;;;;;5015853;28;46444;-66
2023/01/11 09:44:40;;;;;;;1.30;0.70;;;11.10;46.90;;;;;;5017250;28;46451;-67
2023/01/11 09:47:20;;;;;;;1.40;0.70;;;11.20;47.10;;;;;;5015974;28;47091;-66
2023/01/11 09:49:54;;;;;;;1.73;0.80;;;11.10;46.70;;;;;;5016008;28;46319;-66
2023/01/11 09:52:28;;;;;;;4.03;0.70;;;11.10;46.90;;;;;;5015222;28;46425;-68
2023/01/11 09:54:55;;;;;;;1.67;0.80;;;11.10;47.00;;;;;;5016065;28;46322;-66
2023/01/11 09:57:47;;;;;;;1.67;0.87;;;11.10;46.80;;;;;;5015880;28;46527;-66
2023/01/11 10:00:21;;;;;;;2.10;1.30;;;11.20;46.60;;;;;;5017280;28;46140;-66
2023/01/11 10:03:16;;;;;;;1.60;0.90;;;11.30;46.40;;;;;;5017703;28;46508;-67
2023/01/11 10:06:13;;;;;;;3.67;1.70;;;11.30;46.10;;;;;;5017269;28;46475;-66
2023/01/11 10:09:04;;;;;;;1.80;0.90;;;11.40;46.00;;;;;;5017171;28;47022;-66
2023/01/11 10:11:36;;;;;;;1.47;0.70;;;11.50;45.90;;;;;;5019898;28;45794;-66
2023/01/11 10:14:24;;;;;;;4.50;1.23;;;11.60;46.00;;;;;;5019045;28;46326;-67
2023/01/11 10:17:15;;;;;;;1.80;0.87;;;11.60;45.60;;;;;;5018873;28;46429;-66
2023/01/11 10:19:55;;;;;;;2.50;1.30;;;11.70;45.40;;;;;;5019367;28;46586;-66
2023/01/11 10:22:43;;;;;;;1.80;0.80;;;11.90;45.20;;;;;;5019247;28;46562;-66
2023/01/11 10:25:17;;;;;;;2.30;1.37;;;12.00;44.10;;;;;;5019353;28;46385;-67
2023/01/11 10:27:59;;;;;;;1.30;0.60;;;12.10;43.70;;;;;;5020402;28;46482;-67
2023/01/11 10:33:17;;;;;;;2.10;1.07;;;12.30;42.60;;;;;;5020126;28;46564;-66
2023/01/11 10:41:59;;;;;;;1.83;1.00;;;12.50;42.20;;;;;;4964483;28;46480;-67
2023/01/11 10:44:33;;;;;;;1.40;0.60;;;12.40;41.40;;;;;;5019880;28;45882;-66
2023/01/11 10:47:02;;;;;;;1.37;0.70;;;12.40;41.80;;;;;;5018370;28;46327;-67
2023/01/11 10:49:39;;;;;;;1.40;0.60;;;12.30;41.30;;;;;;5018682;28;46584;-66
2023/01/11 10:52:21;;;;;;;1.40;0.70;;;12.30;40.60;;;;;;5018408;28;46857;-67
2023/01/11 10:54:53;;;;;;;1.70;0.70;;;12.10;40.40;;;;;;5018193;28;45902;-66
2023/01/11 10:57:46;;;;;;;1.70;0.70;;;12.00;40.60;;;;;;5019892;28;46399;-66
2023/01/11 11:00:30;;;;;;;1.40;0.70;;;12.00;40.30;;;;;;5017999;28;46528;-67
2023/01/11 11:03:18;;;;;;;1.67;0.70;;;12.10;40.80;;;;;;5018267;28;47020;-66
2023/01/11 11:05:59;;;;;;;1.40;0.70;;;12.00;40.30;;;;;;5005533;28;45877;-66
2023/01/11 11:08:45;;;;;;;1.80;0.80;;;11.90;40.20;;;;;;5017960;28;46472;-67
2023/01/11 11:11:20;;;;;;;1.50;0.70;;;11.90;40.50;;;;;;5019615;28;46460;-66
2023/01/11 11:13:56;;;;;;;7.23;0.90;;;11.90;40.10;;;;;;5018358;28;47453;-66
2023/01/11 11:16:21;;;;;;;1.50;0.70;;;11.90;40.20;;;;;;5018778;28;45904;-66
2023/01/11 11:18:57;;;;;;;1.40;0.63;;;11.90;40.10;;;;;;5018219;28;46446;-67
2023/01/11 11:21:31;;;;;;;2.20;0.90;;;12.00;40.30;;;;;;5018393;28;46446;-65
2023/01/11 11:24:11;;;;;;;1.80;0.80;;;11.90;40.10;;;;;;5017612;28;46499;-67
2023/01/11 11:26:41;;;;;;;1.70;0.80;;;11.90;40.20;;;;;;5017795;28;45868;-67
2023/01/11 11:29:10;;;;;;;3.03;0.80;;;12.00;40.30;;;;;;5018032;28;46497;-68
2023/01/11 11:31:42;;;;;;;2.13;0.80;;;11.90;40.10;;;;;;5019937;28;46308;-67
2023/01/11 11:34:15;;;;;;;2.10;1.10;;;11.90;40.20;;;;;;5020796;28;46776;-67
2023/01/11 11:36:43;;;;;;;1.80;0.90;;;11.90;40.10;;;;;;5019374;28;46596;-66
2023/01/11 11:39:29;;;;;;;5.20;3.30;;;11.80;40.10;;;;;;5018263;28;46373;-68
2023/01/11 11:42:15;;;;;;;1.50;1.00;;;11.70;40.40;;;;;;5018345;28;46029;-67
2023/01/11 11:44:40;;;;;;;1.90;0.70;;;11.70;40.00;;;;;;5018815;28;46343;-68
2023/01/11 11:47:15;;;;;;;1.90;0.77;;;11.80;40.30;;;;;;5017071;28;46342;-67
2023/01/11 11:49:41;;;;;;;1.90;0.90;;;11.80;40.10;;;;;;5016421;28;46584;-67
2023/01/11 11:52:12;;;;;;;2.03;0.70;;;11.80;40.10;;;;;;5017425;28;46461;-67
2023/01/11 11:54:42;;;;;;;2.00;1.20;;;11.80;40.00;;;;;;5016577;28;46429;-66
2023/01/11 11:57:23;;;;;;;1.60;0.80;;;11.80;40.10;;;;;;5015311;28;46499;-66
2023/01/11 11:59:59;;;;;;;1.40;0.70;;;11.90;40.10;;;;;;5018677;28;46370;-67
2023/01/11 12:02:28;;;;;;;2.90;1.33;;;11.80;40.10;;;;;;5017711;28;46359;-68
2023/01/11 12:04:56;;;;;;;1.50;0.73;;;11.80;40.10;;;;;;5016659;28;46510;-67
2023/01/11 12:07:28;;;;;;;2.03;1.10;;;11.80;40.10;;;;;;5015966;28;46822;-67
2023/01/11 12:10:01;;;;;;;4.20;2.10;;;11.80;40.10;;;;;;5018603;28;46446;-67
2023/01/11 12:12:26;;;;;;;6.07;1.73;;;11.90;40.30;;;;;;5017284;28;46012;-67
2023/01/11 12:15:20;;;;;;;3.60;1.60;;;11.80;40.20;;;;;;5015356;28;47182;-67
2023/01/11 12:17:46;;;;;;;2.47;1.10;;;11.80;40.20;;;;;;5015061;28;46332;-67
2023/01/11 12:20:20;;;;;;;3.00;1.20;;;11.70;40.70;;;;;;5017285;28;46366;-67
2023/01/11 12:22:47;;;;;;;2.00;1.03;;;11.80;40.60;;;;;;5015628;28;46436;-68
2023/01/11 12:25:44;;;;;;;2.10;1.10;;;11.80;40.60;;;;;;5015919;28;47159;-67
2023/01/11 12:28:39;;;;;;;1.93;0.80;;;11.70;40.60;;;;;;5015415;28;46476;-68
2023/01/11 12:31:21;;;;;;;3.20;2.30;;;11.80;40.80;;;;;;5017479;28;46405;-67
2023/01/11 12:34:05;;;;;;;1.53;0.90;;;11.70;41.20;;;;;;5017480;28;46762;-67
2023/01/11 12:36:58;;;;;;;1.43;0.70;;;11.60;41.00;;;;;;5016149;28;46354;-67
2023/01/11 12:39:54;;;;;;;2.43;0.80;;;11.60;41.10;;;;;;5019315;28;46481;-67
2023/01/11 12:42:34;;;;;;;1.50;0.73;;;11.60;41.00;;;;;;5019021;28;46259;-67
2023/01/11 12:45:15;;;;;;;1.50;0.80;;;11.70;41.10;;;;;;5018150;28;46428;-67
2023/01/11 12:47:55;;;;;;;1.63;0.70;;;11.70;41.10;;;;;;5018463;28;46316;-67
2023/01/11 12:50:23;;;;;;;1.60;0.80;;;11.60;40.80;;;;;;5016305;28;45891;-67
2023/01/11 12:53:24;;;;;;;1.60;0.80;;;11.70;40.80;;;;;;5016638;28;45833;-67
2023/01/11 12:56:16;;;;;;;1.40;0.70;;;11.80;40.50;;;;;;5018939;28;46450;-68
2023/01/11 12:58:52;;;;;;;1.27;0.63;;;11.80;40.50;;;;;;5017300;28;47216;-67
2023/01/11 13:01:33;;;;;;;1.30;0.70;;;11.80;40.50;;;;;;5017627;28;46735;-67
2023/01/11 13:04:44;;;;;;;1.47;0.73;;;11.80;40.50;;;;;;5016996;28;46561;-68
2023/01/11 13:07:20;;;;;;;1.70;0.90;;;11.80;40.70;;;;;;5016344;28;46487;-66
2023/01/11 13:09:53;;;;;;;1.53;0.80;;;11.70;41.00;;;;;;5018305;28;46003;-66
2023/01/11 13:12:34;;;;;;;3.67;2.30;;;11.70;41.20;;;;;;5016149;28;46766;-66
2023/01/11 13:15:08;;;;;;;4.00;0.97;;;11.60;41.20;;;;;;5016650;28;46359;-67
2023/01/11 13:18:08;;;;;;;2.20;0.93;;;11.50;41.60;;;;;;5017591;28;46371;-67
2023/01/11 13:20:57;;;;;;;1.70;0.80;;;11.40;41.80;;;;;;4964823;28;46468;-68
2023/01/11 13:23:44;;;;;;;1.40;0.70;;;11.30;42.00;;;;;;5017051;28;46456;-66
2023/01/11 13:26:29;;;;;;;2.73;1.20;;;11.30;42.30;;;;;;5017447;28;46168;-66
2023/01/11 13:29:00;;;;;;;2.77;1.57;;;11.10;42.60;;;;;;5017750;28;46949;-67
2023/01/11 13:31:27;;;;;;;1.80;1.07;;;11.00;43.00;;;;;;5017492;28;46355;-67
2023/01/11 13:34:17;;;;;;;4.17;1.27;;;10.90;43.30;;;;;;5016865;28;46399;-67
2023/01/11 13:36:50;;;;;;;5.90;0.80;;;10.80;43.80;;;;;;5016525;28;46355;-66
2023/01/11 13:39:38;;;;;;;1.50;0.73;;;10.80;43.90;;;;;;5017697;28;46447;-67
2023/01/11 13:42:16;;;;;;;2.43;1.00;;;10.70;44.30;;;;;;5016255;28;46494;-67
2023/01/11 13:44:57;;;;;;;2.43;0.87;;;10.50;45.00;;;;;;5020152;28;45795;-67
2023/01/11 13:47:43;;;;;;;1.60;0.90;;;10.50;45.50;;;;;;5019480;28;46395;-68
2023/01/11 13:50:29;;;;;;;1.30;0.70;;;10.40;45.90;;;;;;5020613;28;46619;-67
2023/01/11 13:53:34;;;;;;;1.80;0.90;;;10.30;46.40;;;;;;5020365;28;46917;-67
2023/01/11 13:56:07;;;;;;;2.10;1.17;;;10.10;46.80;;;;;;4995929;28;46671;-67